createdAt,value
2024-04-30T00:13:30.028Z,1015.98
2024-04-30T00:43:30.082Z,1015.93
2024-04-30T01:13:30.018Z,1015.79
2024-04-30T01:43:30.015Z,1015.8
2024-04-30T02:13:30.104Z,1015.77
2024-04-30T02:43:30.158Z,1015.35
2024-04-30T03:13:30.107Z,1015.25
2024-04-30T03:43:30.044Z,1015.13
2024-04-30T04:13:30.085Z,1015.21
2024-04-30T04:43:30.064Z,1015.14
2024-04-30T05:13:30.042Z,1015.15
2024-04-30T05:43:30.057Z,1015.27
2024-04-30T06:13:30.065Z,1015.16
2024-04-30T06:43:30.078Z,1015.09
2024-04-30T07:13:30.047Z,1014.71
2024-04-30T07:43:30.078Z,1014.67
2024-04-30T08:13:30.076Z,1014.51
2024-04-30T08:43:30.050Z,1014.57
2024-04-30T09:13:30.074Z,1014.44
2024-04-30T09:43:30.147Z,1014.1
2024-04-30T10:13:30.086Z,1013.58
2024-04-30T10:43:30.133Z,1013.3
2024-04-30T11:13:30.165Z,1013.05
2024-04-30T11:43:30.081Z,1012.73
2024-04-30T12:13:30.138Z,1012.44
2024-04-30T12:43:30.134Z,1012.11
2024-04-30T13:13:30.185Z,1012.02
2024-04-30T13:43:30.136Z,1011.5
2024-04-30T14:13:30.177Z,1011.16
2024-04-30T14:43:30.162Z,1011.04
2024-04-30T15:13:30.176Z,1010.96
2024-04-30T15:43:30.190Z,1010.8
2024-04-30T16:13:30.143Z,1010.56
2024-04-30T16:43:30.113Z,1010.44
2024-04-30T17:13:30.123Z,1010.26
2024-04-30T17:43:30.169Z,1010.1
2024-04-30T18:13:30.143Z,1010.11
2024-04-30T19:05:33.805Z,1010.06
2024-04-30T19:35:33.739Z,1009.94
2024-04-30T20:05:33.728Z,1009.88
2024-04-30T20:35:33.743Z,1009.6
2024-04-30T21:05:33.777Z,1009.39
2024-04-30T21:35:33.753Z,1009.25
2024-04-30T22:05:33.781Z,1008.92
2024-04-30T22:35:33.790Z,1008.57
2024-04-30T23:05:33.774Z,1008.4
2024-04-30T23:35:33.771Z,1008.34
